Terminal Aerodrome Forecast
Issued by NWS Cleveland, OH

Home | Current Version | Previous Version | Text Only | Print | Product List | Glossary On
Versions: 1 2 3 4 5 6 7 8 9 10 11 12 13 14
000
FTUS41 KCLE 041732
TAFERI
TAF
KERI 041732Z 0418/0518 04010KT P6SM SCT050
     FM050100 17005KT P6SM SCT050
     FM050700 VRB03KT 4SM BR SCT120
     FM051400 21005KT P6SM SCT050
     FM051700 33008KT P6SM SCT050=

USA.gov is the U.S. government's official web portal to all federal, state and local government web resources and services.